Woodgate — D5BX7 — position and weather

sailwx.info

Track history (hours):
 
Tides and Currents Weather Stations Pressure Air Temp Water Temp Dewpoint Dewpoint Depression Visibility Wind Speed Wind Dir Waves Ship Positions

Woodgate

Last reported at 2018-Feb-22 00:37 UTC. Time now 2018-Feb-22 12:53 UTC.
Position S 23°53' W 046°23'.

Length 169 m; draft 8.9 m.

Type: Cargo ship. MMSI: 636015627.

Date/timePositionNaut miles runAvg speedWind from/ knotsBaromVisibWave heightAir tempDewpointWater temp
2018-Feb-22 00:37S 23°53' W 046°23'1 5.2
2018-Feb-22 00:30S 23°53' W 046°23'3 5.8
2018-Feb-22 00:00S 23°55' W 046°20'4 7.8
2018-Feb-21 23:30S 23°58' W 046°18'4 7.6
2018-Feb-21 22:58S 24°01' W 046°21'15 0.3
2018-Feb-19 20:58S 24°10' W 046°07'13213.7
2018-Feb-19 11:18S 23°48' W 043°44'515.2
2018-Feb-19 11:00S 23°47' W 043°39'815.3
2018-Feb-19 10:28S 23°45' W 043°31'815.2
2018-Feb-19 09:58S 23°43' W 043°23'1415.1
2018-Feb-19 09:02S 23°39' W 043°08'414.9
2018-Feb-19 08:47S 23°38' W 043°04'3814.6
2018-Feb-19 06:13S 23°22' W 042°27'  
Track history (hours):
 
Tides and Currents Weather Stations Pressure Air Temp Water Temp Dewpoint Dewpoint Depression Visibility Wind Speed Wind Dir Waves Ship Positions

Woodgate

Last reported at 2018-Feb-22 00:37 UTC. Time now 2018-Feb-22 12:53 UTC.
Position S 23°53' W 046°23'.

Length 169 m; draft 8.9 m.

Type: Cargo ship. MMSI: 636015627.

Date/timePositionNaut miles runAvg speedWind from/ knotsBaromVisibWave heightAir tempDewpointWater temp
2018-Feb-22 00:37S 23°53' W 046°23'1 5.2
2018-Feb-22 00:30S 23°53' W 046°23'3 5.8
2018-Feb-22 00:00S 23°55' W 046°20'4 7.8
2018-Feb-21 23:30S 23°58' W 046°18'4 7.6
2018-Feb-21 22:58S 24°01' W 046°21'15 0.3
2018-Feb-19 20:58S 24°10' W 046°07'13213.7
2018-Feb-19 11:18S 23°48' W 043°44'515.2
2018-Feb-19 11:00S 23°47' W 043°39'815.3
2018-Feb-19 10:28S 23°45' W 043°31'815.2
2018-Feb-19 09:58S 23°43' W 043°23'1415.1
2018-Feb-19 09:02S 23°39' W 043°08'414.9
2018-Feb-19 08:47S 23°38' W 043°04'3814.6
2018-Feb-19 06:13S 23°22' W 042°27'  

Dump ship's entire track history